createdAt,value
2023-03-20T00:02:18.830Z,7.17
2023-03-20T00:04:47.379Z,7.17
2023-03-20T00:07:16.113Z,6.70
2023-03-20T00:09:44.685Z,6.77
2023-03-20T00:12:16.566Z,7.50
2023-03-20T00:14:46.477Z,7.87
2023-03-20T00:17:20.012Z,8.10
2023-03-20T00:19:48.726Z,9.07
2023-03-20T00:22:17.247Z,6.93
2023-03-20T00:24:46.031Z,7.23
2023-03-20T00:27:16.682Z,7.53
2023-03-20T00:29:47.638Z,7.83
2023-03-20T00:32:16.519Z,8.50
2023-03-20T00:34:44.977Z,8.80
2023-03-20T00:37:14.867Z,9.03
2023-03-20T00:39:43.374Z,8.17
2023-03-20T00:42:21.172Z,8.63
2023-03-20T00:44:54.500Z,8.47
2023-03-20T00:47:27.024Z,9.17
2023-03-20T00:49:57.886Z,7.73
2023-03-20T00:52:27.220Z,7.93
2023-03-20T00:54:55.729Z,8.00
2023-03-20T00:57:27.560Z,8.00
2023-03-20T01:00:01.340Z,7.77
2023-03-20T01:02:31.111Z,7.87
2023-03-20T01:05:01.456Z,7.87
2023-03-20T01:07:29.986Z,6.90
2023-03-20T01:09:58.506Z,6.40
2023-03-20T01:12:27.322Z,7.00
2023-03-20T01:14:59.373Z,7.63
2023-03-20T01:17:29.132Z,6.23
2023-03-20T01:19:57.656Z,6.50
2023-03-20T01:22:26.378Z,5.23
2023-03-20T01:24:54.828Z,5.13
2023-03-20T01:27:23.628Z,5.13
2023-03-20T01:29:52.090Z,4.87
2023-03-20T01:32:21.930Z,4.13
2023-03-20T01:34:53.041Z,4.80
2023-03-20T01:37:26.133Z,4.47
2023-03-20T01:39:56.819Z,4.10
2023-03-20T01:42:25.802Z,4.33
2023-03-20T01:44:54.414Z,4.43
2023-03-20T01:47:27.764Z,4.03
2023-03-20T01:50:22.271Z,3.90
2023-03-20T01:52:55.380Z,3.80
2023-03-20T01:55:26.045Z,3.70
2023-03-20T01:58:05.423Z,3.57
2023-03-20T02:00:36.599Z,3.77
2023-03-20T02:03:08.515Z,4.03
2023-03-20T02:05:59.059Z,4.30
2023-03-20T02:08:37.982Z,4.37
2023-03-20T02:11:07.505Z,3.60
2023-03-20T02:13:37.032Z,3.60
2023-03-20T02:16:08.857Z,4.40
2023-03-20T02:18:56.245Z,4.00
2023-03-20T02:21:55.574Z,3.90
2023-03-20T02:24:51.082Z,4.83
2023-03-20T02:27:31.427Z,4.27
2023-03-20T02:30:32.981Z,5.27
2023-03-20T02:33:35.178Z,3.70
2023-03-20T02:36:42.389Z,4.63
2023-03-20T02:39:37.979Z,3.97
2023-03-20T02:42:11.732Z,4.67
2023-03-20T02:44:45.380Z,4.50
2023-03-20T02:47:19.846Z,4.23
2023-03-20T02:49:57.145Z,4.47
2023-03-20T02:52:34.973Z,4.20
2023-03-20T02:55:15.938Z,4.60
2023-03-20T02:57:53.211Z,4.87
2023-03-20T03:00:28.940Z,5.43
2023-03-20T03:03:06.997Z,6.00
2023-03-20T03:05:39.573Z,7.33
2023-03-20T03:08:13.656Z,7.63
2023-03-20T03:10:47.538Z,7.97
2023-03-20T03:13:20.296Z,8.73
2023-03-20T03:15:52.927Z,9.17
2023-03-20T03:18:24.458Z,7.83
2023-03-20T03:20:58.945Z,8.70
2023-03-20T03:23:30.744Z,8.87
2023-03-20T03:26:03.574Z,8.73
2023-03-20T03:28:37.615Z,8.93
2023-03-20T03:31:09.170Z,8.30
2023-03-20T03:33:40.626Z,8.97
2023-03-20T03:36:14.885Z,9.63
2023-03-20T03:38:48.270Z,9.33
2023-03-20T03:41:25.619Z,8.87
2023-03-20T03:44:02.728Z,9.30
2023-03-20T03:46:42.293Z,8.30
2023-03-20T03:49:17.505Z,8.77
2023-03-20T03:51:49.986Z,9.43
2023-03-20T03:54:21.636Z,9.13
2023-03-20T03:57:13.733Z,8.20
2023-03-20T03:59:45.875Z,9.30
2023-03-20T04:02:15.570Z,9.97
2023-03-20T04:04:47.014Z,10.10
2023-03-20T04:07:15.947Z,10.10
2023-03-20T04:09:44.475Z,11.43
2023-03-20T04:12:34.773Z,9.27
2023-03-20T04:15:04.189Z,9.80
2023-03-20T04:17:34.762Z,10.60
2023-03-20T04:20:04.422Z,9.40
2023-03-20T04:22:34.785Z,9.20
2023-03-20T04:25:11.228Z,9.80
2023-03-20T04:27:41.142Z,9.90
2023-03-20T04:30:16.244Z,9.30
2023-03-20T04:33:03.225Z,8.17
2023-03-20T04:35:40.556Z,9.50
2023-03-20T04:38:13.744Z,9.17
2023-03-20T04:40:43.032Z,9.33
2023-03-20T04:43:15.110Z,9.53
2023-03-20T04:45:43.814Z,10.50
2023-03-20T04:48:12.289Z,10.33
2023-03-20T04:50:41.581Z,9.40
2023-03-20T04:53:10.124Z,10.37
2023-03-20T04:55:38.581Z,10.63
2023-03-20T04:58:07.142Z,10.00
2023-03-20T05:00:37.051Z,10.30
2023-03-20T05:03:05.595Z,10.73
2023-03-20T05:05:37.921Z,9.87
2023-03-20T05:08:07.289Z,11.13
2023-03-20T05:10:38.575Z,9.60
2023-03-20T05:13:29.988Z,8.93
2023-03-20T05:16:23.069Z,10.53
2023-03-20T05:19:02.947Z,10.27
2023-03-20T05:21:45.765Z,10.37
2023-03-20T05:24:29.077Z,9.50
2023-03-20T05:27:03.431Z,10.00
2023-03-20T05:29:50.541Z,8.80
2023-03-20T05:32:36.962Z,10.20
2023-03-20T05:35:40.982Z,10.87
2023-03-20T05:38:22.630Z,9.33
2023-03-20T05:41:09.768Z,9.33
2023-03-20T05:44:01.530Z,9.43
2023-03-20T05:46:48.665Z,9.83
2023-03-20T05:49:44.469Z,9.40
2023-03-20T05:52:33.738Z,9.63
2023-03-20T05:55:19.647Z,10.07
2023-03-20T05:58:14.373Z,9.50
2023-03-20T06:01:09.098Z,9.37
2023-03-20T06:03:56.008Z,8.00
2023-03-20T06:06:45.918Z,9.97
2023-03-20T06:09:14.392Z,9.87
2023-03-20T06:11:43.120Z,9.33
2023-03-20T06:14:12.365Z,9.80
2023-03-20T06:16:43.993Z,10.13
2023-03-20T06:19:13.386Z,9.30
2023-03-20T06:21:43.184Z,8.87
2023-03-20T06:24:18.077Z,8.40
2023-03-20T06:26:46.745Z,10.07
2023-03-20T06:29:15.988Z,8.40
2023-03-20T06:31:45.063Z,8.60
2023-03-20T06:34:23.977Z,8.83
2023-03-20T06:36:52.492Z,9.40
2023-03-20T06:39:25.066Z,9.00
2023-03-20T06:41:54.515Z,9.43
2023-03-20T06:44:27.082Z,9.27
2023-03-20T06:47:24.831Z,9.03
2023-03-20T06:49:53.371Z,9.40
2023-03-20T06:52:23.347Z,8.47
2023-03-20T06:55:12.290Z,8.13
2023-03-20T06:57:41.327Z,8.83
2023-03-20T07:00:11.325Z,9.37
2023-03-20T07:02:40.253Z,9.17
2023-03-20T07:05:11.126Z,8.57
2023-03-20T07:07:39.891Z,9.57
2023-03-20T07:10:09.837Z,8.93
2023-03-20T07:12:40.822Z,8.77
2023-03-20T07:15:11.273Z,7.97
2023-03-20T07:17:40.231Z,8.90
2023-03-20T07:20:11.223Z,8.33
2023-03-20T07:22:41.685Z,8.63
2023-03-20T07:25:35.397Z,7.60
2023-03-20T07:28:10.147Z,7.87
2023-03-20T07:30:42.298Z,7.20
2023-03-20T07:33:12.017Z,8.13
2023-03-20T07:35:41.602Z,7.53
2023-03-20T07:38:10.612Z,8.20
2023-03-20T07:40:49.213Z,7.97
2023-03-20T07:43:19.739Z,7.57
2023-03-20T07:46:11.304Z,6.70
2023-03-20T07:48:41.089Z,8.20
2023-03-20T07:51:09.663Z,6.93
2023-03-20T07:53:38.387Z,7.73
2023-03-20T07:56:07.715Z,6.70
2023-03-20T07:58:37.646Z,8.07
2023-03-20T08:01:06.523Z,7.47
2023-03-20T08:03:35.208Z,6.40
2023-03-20T08:06:06.341Z,7.23
2023-03-20T08:08:35.639Z,7.07
2023-03-20T08:11:04.337Z,6.60
2023-03-20T08:13:32.887Z,7.43
2023-03-20T08:16:02.836Z,6.20
2023-03-20T08:18:31.516Z,6.53
2023-03-20T08:21:00.110Z,5.67
2023-03-20T08:23:29.081Z,6.20
2023-03-20T08:25:57.981Z,5.73
2023-03-20T08:28:43.997Z,5.83
2023-03-20T08:31:17.340Z,5.53
2023-03-20T08:33:46.847Z,6.37
2023-03-20T08:36:17.081Z,5.53
2023-03-20T08:38:45.902Z,5.50
2023-03-20T08:41:14.753Z,5.10
2023-03-20T08:43:43.292Z,5.07
2023-03-20T08:46:12.191Z,5.33
2023-03-20T08:48:42.106Z,4.40
2023-03-20T08:51:10.598Z,5.10
2023-03-20T08:53:39.089Z,5.47
2023-03-20T08:56:08.857Z,5.30
2023-03-20T08:58:37.361Z,4.77
2023-03-20T09:01:07.930Z,5.53
2023-03-20T09:03:36.986Z,5.10
2023-03-20T09:06:09.369Z,5.87
2023-03-20T09:08:38.527Z,4.77
2023-03-20T09:11:08.071Z,5.43
2023-03-20T09:13:36.777Z,5.00
2023-03-20T09:16:06.494Z,6.10
2023-03-20T09:18:35.143Z,5.77
2023-03-20T09:21:03.864Z,5.63
2023-03-20T09:23:34.017Z,6.13
2023-03-20T09:26:02.555Z,5.43
2023-03-20T09:28:31.126Z,5.63
2023-03-20T09:31:00.798Z,6.07
2023-03-20T09:33:29.360Z,5.60
2023-03-20T09:35:57.981Z,5.33
2023-03-20T09:38:26.461Z,4.10
2023-03-20T09:40:59.894Z,4.77
2023-03-20T09:43:39.166Z,5.90
2023-03-20T09:46:19.625Z,4.67
2023-03-20T09:48:55.012Z,4.87
2023-03-20T09:51:31.485Z,5.17
2023-03-20T09:54:05.228Z,4.77
2023-03-20T09:56:35.381Z,5.00
2023-03-20T09:59:07.745Z,4.63
2023-03-20T10:01:45.302Z,4.77
2023-03-20T10:04:14.446Z,4.47
2023-03-20T10:06:43.861Z,4.60
2023-03-20T10:09:17.574Z,4.47
2023-03-20T10:12:18.206Z,4.10
2023-03-20T10:14:57.725Z,4.80
2023-03-20T10:17:45.214Z,4.67
2023-03-20T10:20:15.402Z,4.13
2023-03-20T10:22:48.313Z,4.00
2023-03-20T10:25:32.155Z,3.67
2023-03-20T10:28:04.235Z,3.03
2023-03-20T10:30:42.153Z,3.40
2023-03-20T10:33:29.001Z,4.33
2023-03-20T10:36:10.511Z,3.70
2023-03-20T10:38:45.581Z,4.23
2023-03-20T10:41:18.685Z,4.47
2023-03-20T10:43:51.952Z,3.90
2023-03-20T10:46:28.110Z,4.17
2023-03-20T10:49:02.156Z,4.00
2023-03-20T10:51:40.535Z,4.43
2023-03-20T10:54:23.915Z,3.97
2023-03-20T10:56:55.884Z,3.83
2023-03-20T10:59:29.435Z,5.10
2023-03-20T11:01:57.965Z,4.67
2023-03-20T11:04:27.426Z,5.13
2023-03-20T11:07:03.885Z,4.20
2023-03-20T11:09:32.720Z,5.03
2023-03-20T11:12:03.620Z,5.37
2023-03-20T11:14:38.035Z,5.30
2023-03-20T11:17:07.658Z,5.13
2023-03-20T11:19:37.667Z,5.83
2023-03-20T11:22:25.473Z,5.07
2023-03-20T11:24:56.311Z,5.40
2023-03-20T11:27:27.708Z,4.83
2023-03-20T11:29:59.509Z,5.90
2023-03-20T11:32:31.193Z,6.87
2023-03-20T11:35:17.897Z,5.93
2023-03-20T11:37:47.926Z,6.23
2023-03-20T11:40:18.220Z,5.73
2023-03-20T11:42:55.185Z,6.77
2023-03-20T11:45:25.616Z,5.97
2023-03-20T11:47:56.286Z,6.27
2023-03-20T11:50:34.342Z,6.77
2023-03-20T11:53:03.983Z,7.30
2023-03-20T11:55:34.614Z,7.37
2023-03-20T11:58:06.316Z,7.53
2023-03-20T12:00:40.796Z,7.50
2023-03-20T12:03:44.880Z,6.87
2023-03-20T12:06:18.587Z,6.67
2023-03-20T12:08:52.806Z,7.13
2023-03-20T12:11:40.481Z,8.93
2023-03-20T12:14:18.684Z,6.97
2023-03-20T12:16:52.437Z,7.30
2023-03-20T12:19:25.722Z,7.30
2023-03-20T12:22:01.364Z,7.70
2023-03-20T12:24:37.997Z,6.93
2023-03-20T12:27:22.157Z,7.43
2023-03-20T12:29:54.326Z,8.63
2023-03-20T12:32:28.263Z,6.80
2023-03-20T12:35:00.723Z,7.20
2023-03-20T12:37:29.503Z,7.70
2023-03-20T12:40:01.315Z,8.13
2023-03-20T12:42:43.097Z,8.77
2023-03-20T12:45:13.700Z,8.87
2023-03-20T12:48:07.166Z,8.30
2023-03-20T12:50:38.644Z,8.10
2023-03-20T12:53:37.358Z,9.20
2023-03-20T12:56:16.947Z,9.00
2023-03-20T12:58:49.177Z,8.83
2023-03-20T13:01:21.888Z,8.37
2023-03-20T13:04:19.863Z,7.27
2023-03-20T13:06:54.241Z,8.77
2023-03-20T13:09:39.069Z,7.47
2023-03-20T13:12:17.077Z,8.83
2023-03-20T13:14:52.702Z,9.67
2023-03-20T13:17:26.092Z,7.70
2023-03-20T13:20:16.117Z,10.37
2023-03-20T13:22:55.907Z,10.27
2023-03-20T13:25:43.543Z,10.00
2023-03-20T13:28:16.901Z,10.00
2023-03-20T13:30:52.066Z,9.10
2023-03-20T13:33:34.276Z,9.73
2023-03-20T13:36:16.063Z,8.60
2023-03-20T13:38:48.682Z,9.50
2023-03-20T13:41:18.345Z,10.40
2023-03-20T13:43:49.760Z,10.97
2023-03-20T13:46:21.538Z,9.23
2023-03-20T13:48:51.492Z,9.70
2023-03-20T13:51:28.212Z,9.30
2023-03-20T13:54:06.339Z,9.27
2023-03-20T13:56:41.850Z,8.57
2023-03-20T13:59:55.480Z,9.97
2023-03-20T14:02:35.541Z,9.63
2023-03-20T14:05:07.665Z,11.13
2023-03-20T14:07:39.656Z,10.53
2023-03-20T14:10:39.889Z,10.33
2023-03-20T14:13:15.317Z,8.93
2023-03-20T14:15:52.368Z,10.90
2023-03-20T14:18:24.168Z,9.60
2023-03-20T14:20:56.454Z,10.17
2023-03-20T14:23:36.432Z,9.77
2023-03-20T14:26:11.393Z,10.43
2023-03-20T14:28:53.972Z,9.33
2023-03-20T14:31:25.658Z,9.37
2023-03-20T14:34:09.759Z,9.40
2023-03-20T14:36:53.455Z,10.43
2023-03-20T14:39:40.669Z,9.87
2023-03-20T14:42:25.575Z,9.37
2023-03-20T14:45:25.279Z,10.97
2023-03-20T14:48:02.379Z,11.30
2023-03-20T14:50:35.374Z,10.77
2023-03-20T14:53:14.730Z,10.30
2023-03-20T14:55:53.651Z,10.07
2023-03-20T14:58:50.945Z,10.17
2023-03-20T15:01:27.300Z,10.80
2023-03-20T15:04:01.582Z,11.70
2023-03-20T15:06:30.616Z,11.30
2023-03-20T15:09:02.112Z,12.23
2023-03-20T15:11:32.984Z,12.23
2023-03-20T15:14:04.315Z,13.60
2023-03-20T15:16:35.255Z,11.53
2023-03-20T15:19:08.133Z,12.53
2023-03-20T15:21:40.755Z,13.23
2023-03-20T15:24:17.598Z,10.53
2023-03-20T15:26:47.695Z,11.43
2023-03-20T15:29:20.040Z,10.87
2023-03-20T15:32:12.395Z,11.37
2023-03-20T15:34:43.050Z,10.70
2023-03-20T15:37:16.384Z,9.90
2023-03-20T15:39:48.132Z,9.80
2023-03-20T15:42:20.680Z,9.57
2023-03-20T15:44:50.385Z,12.27
2023-03-20T15:47:22.026Z,11.43
2023-03-20T15:49:53.710Z,11.10
2023-03-20T15:52:28.770Z,11.17
2023-03-20T15:54:59.187Z,12.52
2023-03-20T15:57:35.604Z,13.38
2023-03-20T16:00:07.409Z,11.13
2023-03-20T16:02:38.212Z,12.43
2023-03-20T16:05:13.218Z,11.77
2023-03-20T16:07:42.181Z,11.40
2023-03-20T16:10:18.661Z,12.50
2023-03-20T16:12:51.141Z,13.50
2023-03-20T16:15:20.468Z,12.47
2023-03-20T16:17:58.411Z,12.43
2023-03-20T16:20:31.538Z,13.10
2023-03-20T16:23:03.088Z,13.20
2023-03-20T16:25:31.768Z,12.87
2023-03-20T16:28:02.069Z,12.63
2023-03-20T16:30:32.764Z,14.10
2023-03-20T16:33:06.561Z,12.67
2023-03-20T16:35:40.704Z,13.77
2023-03-20T16:38:17.791Z,12.90
2023-03-20T16:40:46.445Z,12.80
2023-03-20T16:43:18.672Z,11.77
2023-03-20T16:45:50.367Z,14.30
2023-03-20T16:48:26.706Z,14.33
2023-03-20T16:51:04.222Z,15.43
2023-03-20T16:53:39.307Z,15.37
2023-03-20T16:56:12.615Z,16.93
2023-03-20T16:58:44.261Z,15.43
2023-03-20T17:01:19.321Z,16.53
2023-03-20T17:03:52.135Z,15.33
2023-03-20T17:06:36.059Z,14.80
2023-03-20T17:09:24.923Z,15.93
2023-03-20T17:12:01.719Z,13.47
2023-03-20T17:14:34.252Z,14.67
2023-03-20T17:17:02.706Z,14.50
2023-03-20T17:19:33.315Z,14.50
2023-03-20T17:22:05.164Z,15.83
2023-03-20T17:24:33.672Z,17.63
2023-03-20T17:27:02.153Z,18.23
2023-03-20T17:29:31.977Z,16.80
2023-03-20T17:32:00.563Z,16.13
2023-03-20T17:34:29.205Z,17.00
2023-03-20T17:36:59.739Z,17.43
2023-03-20T17:39:28.217Z,16.67
2023-03-20T17:41:57.053Z,14.80
2023-03-20T17:44:25.552Z,16.90
2023-03-20T17:46:58.817Z,17.93
2023-03-20T17:49:28.288Z,17.70
2023-03-20T17:51:57.093Z,13.47
2023-03-20T17:54:25.673Z,15.37
2023-03-20T17:56:54.244Z,15.10
2023-03-20T17:59:22.770Z,16.23
2023-03-20T18:01:51.327Z,14.40
2023-03-20T18:04:21.485Z,16.40
2023-03-20T18:06:49.978Z,16.07
2023-03-20T18:09:18.588Z,16.17
2023-03-20T18:11:47.196Z,17.43
2023-03-20T18:14:17.915Z,17.63
2023-03-20T18:16:46.931Z,16.10
2023-03-20T18:19:25.725Z,15.90
2023-03-20T18:21:54.376Z,17.00
2023-03-20T18:24:23.156Z,14.77
2023-03-20T18:26:53.051Z,17.20
2023-03-20T18:29:22.698Z,16.43
2023-03-20T18:31:51.479Z,17.37
2023-03-20T18:34:20.029Z,16.53
2023-03-20T18:36:49.853Z,17.37
2023-03-20T18:39:23.502Z,17.03
2023-03-20T18:41:52.555Z,19.33
2023-03-20T18:44:21.063Z,17.70
2023-03-20T18:46:49.575Z,18.33
2023-03-20T18:49:19.514Z,18.63
2023-03-20T18:51:49.719Z,18.23
2023-03-20T18:54:18.188Z,17.43
2023-03-20T18:56:49.678Z,17.47
2023-03-20T18:59:19.121Z,17.40
2023-03-20T19:01:48.641Z,16.27
2023-03-20T19:04:18.205Z,22.47
2023-03-20T19:06:46.913Z,19.40
2023-03-20T19:09:18.298Z,21.77
2023-03-20T19:11:46.778Z,22.03
2023-03-20T19:14:15.430Z,20.07
2023-03-20T19:16:43.881Z,22.23
2023-03-20T19:19:16.273Z,23.00
2023-03-20T19:21:44.758Z,22.33
2023-03-20T19:24:13.235Z,21.90
2023-03-20T19:26:43.054Z,24.50
2023-03-20T19:29:13.900Z,19.37
2023-03-20T19:31:42.428Z,18.03
2023-03-20T19:34:28.060Z,18.40
2023-03-20T19:36:59.281Z,19.20
2023-03-20T19:39:27.812Z,17.17
2023-03-20T19:42:11.988Z,18.20
2023-03-20T19:44:46.120Z,16.17
2023-03-20T19:47:14.638Z,17.97
2023-03-20T19:49:43.085Z,17.20
2023-03-20T19:52:18.310Z,17.10
2023-03-20T19:55:00.216Z,17.57
2023-03-20T19:57:32.368Z,16.73
2023-03-20T20:00:50.617Z,16.53
2023-03-20T20:02:49.599Z,16.43
2023-03-20T20:05:22.108Z,17.93
2023-03-20T20:10:41.433Z,17.50
2023-03-20T20:13:16.181Z,16.43
2023-03-20T20:15:45.305Z,16.87
2023-03-20T20:18:14.295Z,16.20
2023-03-20T20:21:19.589Z,16.83
2023-03-20T20:23:32.346Z,16.53
2023-03-20T20:26:00.826Z,15.20
2023-03-20T20:28:31.538Z,17.80
2023-03-20T20:31:00.069Z,15.87
2023-03-20T20:33:29.208Z,14.80
2023-03-20T20:36:36.742Z,14.73
2023-03-20T20:38:51.852Z,14.60
2023-03-20T20:41:20.701Z,13.53
2023-03-20T20:44:15.182Z,12.80
2023-03-20T20:46:39.279Z,11.70
2023-03-20T20:49:18.757Z,12.13
2023-03-20T20:51:48.357Z,11.97
2023-03-20T20:54:17.257Z,10.73
2023-03-20T20:56:46.337Z,15.10
2023-03-20T20:59:16.290Z,12.17
2023-03-20T21:01:44.835Z,9.97
2023-03-20T21:04:13.657Z,9.73
2023-03-20T21:09:30.561Z,9.87
2023-03-20T21:11:59.060Z,11.30
2023-03-20T21:14:28.953Z,10.70
2023-03-20T21:17:01.133Z,10.50
2023-03-20T21:19:30.843Z,11.10
2023-03-20T21:21:59.584Z,12.33
2023-03-20T21:24:33.826Z,12.43
2023-03-20T21:27:04.624Z,11.20
2023-03-20T21:29:34.545Z,12.63
2023-03-20T21:32:03.093Z,13.00
2023-03-20T21:34:32.092Z,14.73
2023-03-20T21:37:30.708Z,14.40
2023-03-20T21:39:52.296Z,14.93
2023-03-20T21:42:21.083Z,14.83
2023-03-20T21:48:24.606Z,15.47
2023-03-20T21:56:42.452Z,13.80
2023-03-20T21:59:36.946Z,13.63
2023-03-20T22:02:10.701Z,13.20
2023-03-20T22:05:20.806Z,14.90
2023-03-20T22:07:56.295Z,13.67
2023-03-20T22:16:36.693Z,13.87
2023-03-20T22:27:50.274Z,13.17
2023-03-20T22:30:52.600Z,12.10
2023-03-20T22:33:23.694Z,12.97
2023-03-20T22:36:18.700Z,12.23
2023-03-20T22:39:12.604Z,11.33
2023-03-20T22:46:47.446Z,11.73
2023-03-20T22:49:16.388Z,10.47
2023-03-20T22:52:04.738Z,11.83
2023-03-20T22:54:34.670Z,11.03
2023-03-20T22:57:03.467Z,11.07
2023-03-20T22:59:31.942Z,10.73
2023-03-20T23:02:00.410Z,10.83
2023-03-20T23:04:30.101Z,11.63
2023-03-20T23:07:01.640Z,12.23
2023-03-20T23:09:30.624Z,9.73
2023-03-20T23:11:59.064Z,10.53
2023-03-20T23:14:30.795Z,12.03
2023-03-20T23:17:02.134Z,11.63
2023-03-20T23:19:37.785Z,10.70
2023-03-20T23:22:14.972Z,9.97
2023-03-20T23:24:43.444Z,11.73
2023-03-20T23:27:11.909Z,11.63
2023-03-20T23:29:40.757Z,10.97
2023-03-20T23:32:09.255Z,12.23
2023-03-20T23:34:38.096Z,11.60
2023-03-20T23:37:06.803Z,12.47
2023-03-20T23:39:36.644Z,12.50
2023-03-20T23:42:17.421Z,12.10
2023-03-20T23:45:00.111Z,13.43
2023-03-20T23:47:43.988Z,13.00
2023-03-20T23:50:26.519Z,13.30
2023-03-20T23:53:06.700Z,13.57
2023-03-20T23:55:44.486Z,13.80
2023-03-20T23:58:13.809Z,15.50
